Time;durP1;ratioP1;P1;durP2;ratioP2;P2;SDS_P1;SDS_P2;PMS_P1;PMS_P2;Temp;Humidity;BMP_temperature;BMP_pressure;BME280_temperature;BME280_humidity;BME280_pressure;Samples;Min_cycle;Max_cycle;Signal;HPM_P1;HPM_P2
2023/10/19 00:00:56;;;;;;;26.68;12.70;;;;;;;5.45;72.67;100077.30;1747546;80;21108;-74
2023/10/19 00:03:25;;;;;;;24.72;12.03;;;;;;;5.43;72.80;100077.47;1743835;81;21108;-73
2023/10/19 00:05:56;;;;;;;26.93;11.25;;;;;;;5.45;72.92;100086.80;1743855;81;21119;-74
2023/10/19 00:08:26;;;;;;;22.13;11.45;;;;;;;5.41;73.06;100080.87;1744092;81;21551;-73
2023/10/19 00:11:11;;;;;;;21.82;10.93;;;;;;;5.33;73.18;100079.02;1743818;82;21163;-73
2023/10/19 00:13:43;;;;;;;22.82;10.38;;;;;;;5.31;73.41;100085.64;1739966;81;21110;-73
2023/10/19 00:16:16;;;;;;;21.87;10.72;;;;;;;5.24;73.49;100081.41;1733187;83;21122;-74
2023/10/19 00:18:44;;;;;;;20.95;11.22;;;;;;;5.17;73.75;100079.51;1733098;82;21197;-74
2023/10/19 00:21:23;;;;;;;23.35;10.95;;;;;;;5.13;73.94;100076.29;1733113;83;21161;-73
2023/10/19 00:23:57;;;;;;;23.30;11.15;;;;;;;5.12;74.06;100083.25;1735201;81;21126;-75
2023/10/19 00:26:26;;;;;;;23.45;10.93;;;;;;;5.09;74.17;100085.80;1733494;81;21123;-72
2023/10/19 00:28:57;;;;;;;19.07;9.98;;;;;;;5.07;74.32;100090.03;1733141;83;21558;-73
2023/10/19 00:31:33;;;;;;;18.30;9.78;;;;;;;5.08;74.43;100089.53;1733468;81;21177;-73
2023/10/19 00:34:00;;;;;;;21.12;10.93;;;;;;;5.07;74.51;100089.19;1733154;83;21111;-72
2023/10/19 00:36:31;;;;;;;19.67;10.65;;;;;;;5.03;74.51;100087.83;1733228;83;21644;-75
2023/10/19 00:39:05;;;;;;;19.70;10.98;;;;;;;4.99;74.62;100087.33;1733346;83;21094;-75
2023/10/19 00:41:31;;;;;;;22.10;11.10;;;;;;;4.98;74.75;100087.49;1732800;81;21600;-73
2023/10/19 00:44:03;;;;;;;19.25;10.00;;;;;;;4.99;74.82;100090.55;1733225;82;21593;-75
2023/10/19 00:46:32;;;;;;;21.20;10.23;;;;;;;4.94;74.91;100077.48;1733136;83;21570;-74
2023/10/19 00:49:05;;;;;;;22.27;10.38;;;;;;;4.89;74.98;100086.64;1733328;83;21249;-74
2023/10/19 00:51:54;;;;;;;20.25;10.55;;;;;;;4.85;75.18;100080.36;1733194;83;21130;-72
2023/10/19 00:54:42;;;;;;;21.87;9.95;;;;;;;4.84;75.35;100080.02;1731575;82;21651;-72
2023/10/19 00:57:11;;;;;;;25.15;9.80;;;;;;;4.83;75.47;100077.81;1732996;82;21031;-74
2023/10/19 00:59:53;;;;;;;20.68;9.98;;;;;;;4.83;75.52;100084.60;1733294;81;21035;-74
2023/10/19 01:05:05;;;;;;;20.88;10.03;;;;;;;4.76;75.72;100084.43;1757389;82;21061;-72
2023/10/19 01:07:38;;;;;;;23.25;11.85;;;;;;;4.75;75.79;100085.45;1757152;82;21042;-73
2023/10/19 01:10:09;;;;;;;18.70;9.63;;;;;;;4.73;75.90;100086.62;1757157;80;21567;-73
2023/10/19 01:12:39;;;;;;;18.60;9.73;;;;;;;4.73;76.03;100082.05;1757051;80;21026;-72
2023/10/19 01:15:17;;;;;;;17.80;10.13;;;;;;;4.71;76.17;100089.52;1757490;82;21078;-74
2023/10/19 01:17:52;;;;;;;22.52;10.35;;;;;;;4.70;76.23;100090.53;1757164;80;21507;-73
2023/10/19 01:28:42;;;;;;;24.35;13.05;;;;;;;4.61;76.58;100082.55;1757156;80;20181;-74
2023/10/19 01:31:15;;;;;;;21.37;11.28;;;;;;;4.59;76.84;100078.64;1757121;81;21042;-73
2023/10/19 01:33:47;;;;;;;24.27;10.85;;;;;;;4.62;76.96;100077.45;1757079;82;22019;-73
2023/10/19 01:38:55;;;;;;;19.40;10.65;;;;;;;4.67;76.97;100086.79;1757292;82;21010;-74
2023/10/19 01:41:26;;;;;;;21.62;10.95;;;;;;;4.68;76.91;100089.84;1757219;82;21523;-73
2023/10/19 01:43:55;;;;;;;19.05;10.60;;;;;;;4.70;76.84;100087.81;1757107;82;21470;-73
2023/10/19 01:46:24;;;;;;;20.88;11.38;;;;;;;4.72;76.81;100087.14;1757064;82;21515;-74
2023/10/19 01:48:57;;;;;;;27.07;11.75;;;;;;;4.70;76.71;100078.31;1757245;82;21089;-74
2023/10/19 01:51:28;;;;;;;20.70;12.80;;;;;;;4.68;76.76;100079.50;1748855;81;21511;-74
2023/10/19 01:53:58;;;;;;;20.40;10.95;;;;;;;4.66;76.83;100079.67;1757183;82;21002;-73
2023/10/19 01:56:28;;;;;;;19.17;10.08;;;;;;;4.68;76.81;100083.06;1757694;80;21089;-73
2023/10/19 01:58:58;;;;;;;19.52;10.48;;;;;;;4.67;76.73;100082.72;1758776;82;21062;-74
2023/10/19 02:03:59;;;;;;;17.05;9.15;;;;;;;4.68;76.69;100080.34;1757236;81;21457;-73
2023/10/19 02:06:36;;;;;;;18.92;9.30;;;;;;;4.65;76.65;100082.05;1757214;82;21018;-74
2023/10/19 02:11:56;;;;;;;17.85;9.95;;;;;;;4.65;76.83;100081.19;1757231;80;21026;-74
2023/10/19 02:14:28;;;;;;;18.30;10.08;;;;;;;4.65;76.87;100082.55;1757375;82;21065;-74
2023/10/19 02:17:00;;;;;;;20.70;10.53;;;;;;;4.65;76.90;100082.05;1757182;82;21050;-74
2023/10/19 02:19:29;;;;;;;22.40;11.35;;;;;;;4.62;76.90;100081.02;1757211;80;21088;-74
2023/10/19 02:22:11;;;;;;;23.77;11.57;;;;;;;4.63;77.05;100080.51;1757386;80;21050;-74
2023/10/19 02:24:39;;;;;;;21.10;11.80;;;;;;;4.66;77.11;100083.73;1757435;82;21037;-75
2023/10/19 02:27:09;;;;;;;23.45;12.88;;;;;;;4.65;77.11;100080.69;1757305;82;21477;-75
2023/10/19 02:29:41;;;;;;;24.60;13.03;;;;;;;4.63;77.06;100075.94;1755608;80;21466;-74
2023/10/19 02:32:10;;;;;;;19.15;11.18;;;;;;;4.63;77.24;100081.87;1757265;82;21041;-73
2023/10/19 02:34:39;;;;;;;19.90;10.30;;;;;;;4.65;77.26;100083.39;1757432;80;21002;-73
2023/10/19 02:37:08;;;;;;;22.30;10.32;;;;;;;4.66;77.15;100074.24;1757227;82;21045;-73
2023/10/19 02:39:38;;;;;;;17.77;10.00;;;;;;;4.68;77.20;100083.06;1757361;82;21053;-74
2023/10/19 02:42:08;;;;;;;17.62;10.23;;;;;;;4.69;77.17;100068.98;1757483;80;21050;-74
2023/10/19 02:44:38;;;;;;;20.75;11.05;;;;;;;4.70;77.18;100064.75;1757297;82;21033;-75
2023/10/19 02:47:08;;;;;;;19.55;10.53;;;;;;;4.71;77.09;100073.23;1757126;82;21440;-75
2023/10/19 02:49:39;;;;;;;19.50;10.05;;;;;;;4.67;77.08;100071.87;1757296;80;21446;-73
2023/10/19 02:52:10;;;;;;;20.37;10.72;;;;;;;4.61;77.05;100067.63;1757320;80;21025;-73
2023/10/19 02:54:39;;;;;;;20.62;10.20;;;;;;;4.57;77.20;100073.89;1757099;82;21500;-73
2023/10/19 02:57:12;;;;;;;20.52;10.90;;;;;;;4.51;77.25;100063.67;1757186;80;21755;-74
2023/10/19 02:59:39;;;;;;;20.00;10.93;;;;;;;4.49;77.37;100067.57;1757332;82;21025;-74
2023/10/19 03:04:43;;;;;;;25.27;11.38;;;;;;;4.38;77.49;100071.45;1757525;82;21046;-73
2023/10/19 03:07:18;;;;;;;24.27;12.35;;;;;;;4.38;77.72;100061.95;1757179;80;20982;-74
2023/10/19 03:09:48;;;;;;;25.02;12.05;;;;;;;4.37;77.79;100065.17;1756581;82;21045;-74
2023/10/19 03:12:13;;;;;;;27.48;14.47;;;;;;;4.37;77.88;100070.59;1756815;82;21018;-75
2023/10/19 03:14:43;;;;;;;32.13;15.58;;;;;;;4.37;77.96;100075.17;1757338;82;21453;-74
2023/10/19 03:17:11;;;;;;;37.05;16.90;;;;;;;4.37;78.02;100081.95;1757223;82;21037;-73
2023/10/19 03:19:42;;;;;;;36.05;16.30;;;;;;;4.34;78.06;100075.51;1757405;80;21006;-73
2023/10/19 03:22:11;;;;;;;33.10;16.07;;;;;;;4.28;78.08;100074.30;1757373;82;21045;-73
2023/10/19 03:24:43;;;;;;;27.55;13.98;;;;;;;4.21;78.17;100075.98;1757386;82;20998;-73
2023/10/19 03:27:24;;;;;;;24.55;13.53;;;;;;;4.16;78.40;100078.34;1757255;82;21010;-74
2023/10/19 03:29:56;;;;;;;29.27;15.75;;;;;;;4.17;78.70;100075.12;1757606;82;21006;-73
2023/10/19 03:32:32;;;;;;;24.45;14.07;;;;;;;4.18;78.90;100070.89;1758269;82;21037;-75
2023/10/19 03:34:59;;;;;;;28.10;15.55;;;;;;;4.26;78.97;100072.27;1757311;82;21085;-72
2023/10/19 03:37:35;;;;;;;29.92;14.43;;;;;;;4.34;78.90;100068.22;1757221;82;21033;-73
2023/10/19 03:40:07;;;;;;;27.05;13.72;;;;;;;4.40;78.67;100081.11;1757273;80;21065;-73
2023/10/19 03:42:46;;;;;;;30.12;13.58;;;;;;;4.40;78.43;100078.41;1757305;82;21014;-73
2023/10/19 03:45:14;;;;;;;27.67;12.20;;;;;;;4.38;78.37;100075.52;1754434;82;21053;-74
2023/10/19 03:47:49;;;;;;;22.67;12.07;;;;;;;4.36;78.31;100070.26;1757367;80;21009;-73
2023/10/19 03:50:23;;;;;;;26.23;12.30;;;;;;;4.36;78.25;100073.47;1757411;80;21014;-72
2023/10/19 03:52:53;;;;;;;24.77;12.07;;;;;;;4.35;78.24;100078.56;1757573;80;21021;-75
2023/10/19 03:55:23;;;;;;;22.98;12.78;;;;;;;4.37;78.29;100074.66;1757171;82;21093;-73
2023/10/19 03:57:54;;;;;;;26.20;12.88;;;;;;;4.40;78.35;100076.20;1757262;80;21114;-74
2023/10/19 04:00:27;;;;;;;21.57;12.23;;;;;;;4.42;78.32;100078.23;1757253;80;21077;-76
2023/10/19 04:02:58;;;;;;;22.05;12.82;;;;;;;4.42;78.17;100073.66;1757133;82;21065;-76
2023/10/19 04:05:28;;;;;;;25.32;14.07;;;;;;;4.41;78.06;100076.03;1757174;80;21113;-73
2023/10/19 04:08:12;;;;;;;21.52;11.85;;;;;;;4.38;77.92;100071.45;1757297;82;20993;-72
2023/10/19 04:13:04;;;;;;;24.50;12.63;;;;;;;4.34;77.82;100073.64;1757268;82;21065;-75
2023/10/19 04:15:36;;;;;;;20.75;11.75;;;;;;;4.32;77.83;100078.89;1757267;82;21465;-75
2023/10/19 04:18:11;;;;;;;26.70;13.18;;;;;;;4.29;77.93;100069.22;1757067;82;21061;-73
2023/10/19 04:23:18;;;;;;;24.40;12.53;;;;;;;4.28;78.11;100072.10;1757114;82;21037;-73
2023/10/19 04:25:47;;;;;;;24.12;13.25;;;;;;;4.28;78.13;100074.30;1757257;82;21026;-75
2023/10/19 04:28:21;;;;;;;26.62;12.25;;;;;;;4.31;78.22;100071.77;1757271;80;21065;-74
2023/10/19 04:30:48;;;;;;;21.37;12.35;;;;;;;4.29;78.21;100082.78;1757029;82;21536;-74
2023/10/19 04:33:18;;;;;;;25.48;12.75;;;;;;;4.30;78.22;100080.92;1757354;80;21061;-74
2023/10/19 04:35:53;;;;;;;26.52;13.18;;;;;;;4.28;78.20;100082.44;1757238;80;21093;-74
2023/10/19 04:38:17;;;;;;;30.05;18.50;;;;;;;4.29;78.25;100079.22;1729807;82;21547;-73
2023/10/19 04:40:46;;;;;;;26.10;13.98;;;;;;;4.31;78.38;100083.97;1757279;80;21026;-73
2023/10/19 04:43:16;;;;;;;26.27;15.28;;;;;;;4.32;78.33;100087.87;1757136;82;21041;-72
2023/10/19 04:45:45;;;;;;;29.07;15.60;;;;;;;4.32;78.30;100086.52;1757441;82;21021;-73
2023/10/19 04:48:13;;;;;;;29.65;15.65;;;;;;;4.34;78.30;100093.13;1757395;82;21026;-75
2023/10/19 04:50:42;;;;;;;24.63;13.60;;;;;;;4.36;78.27;100089.75;1757331;80;21018;-74
2023/10/19 04:53:11;;;;;;;23.32;13.15;;;;;;;4.38;78.12;100083.65;1757056;82;21442;-74
2023/10/19 04:55:40;;;;;;;24.67;13.53;;;;;;;4.39;77.99;100090.27;1757118;82;21654;-74
2023/10/19 04:58:10;;;;;;;24.60;13.90;;;;;;;4.42;77.85;100094.00;1757323;80;21010;-73
2023/10/19 05:00:39;;;;;;;30.77;17.48;;;;;;;4.43;77.68;100093.50;1757162;82;21085;-75
2023/10/19 05:03:07;;;;;;;29.55;16.00;;;;;;;4.43;77.68;100092.14;1744717;81;21518;-73
2023/10/19 05:05:38;;;;;;;27.02;14.38;;;;;;;4.44;77.60;100101.98;1734057;81;21497;-72
2023/10/19 05:08:07;;;;;;;31.87;16.02;;;;;;;4.45;77.52;100099.61;1733640;83;21047;-72
2023/10/19 05:10:35;;;;;;;28.42;15.38;;;;;;;4.49;77.44;100100.97;1733264;83;21054;-74
2023/10/19 05:13:04;;;;;;;32.13;16.77;;;;;;;4.50;77.30;100093.68;1733087;81;21544;-76
2023/10/19 05:15:34;;;;;;;27.95;14.80;;;;;;;4.51;77.22;100099.45;1733158;81;21063;-74
2023/10/19 05:18:04;;;;;;;31.70;15.08;;;;;;;4.53;77.20;100097.42;1733236;83;21516;-73
2023/10/19 05:20:33;;;;;;;29.15;15.98;;;;;;;4.58;77.21;100090.51;1733014;82;21467;-75
2023/10/19 05:23:04;;;;;;;28.80;15.83;;;;;;;4.62;77.11;100089.16;1733155;83;21019;-72
2023/10/19 05:25:32;;;;;;;28.52;15.75;;;;;;;4.67;76.99;100096.80;1733217;83;21007;-72
2023/10/19 05:28:01;;;;;;;27.70;15.28;;;;;;;4.71;76.80;100097.66;1733099;83;21482;-73
2023/10/19 05:30:31;;;;;;;25.80;12.85;;;;;;;4.75;76.69;100097.66;1733049;83;21617;-75
2023/10/19 05:33:06;;;;;;;28.40;14.98;;;;;;;4.82;76.57;100095.63;1733152;81;21019;-76
2023/10/19 05:35:34;;;;;;;25.17;14.20;;;;;;;4.89;76.42;100102.08;1732852;81;21055;-73
2023/10/19 05:38:02;;;;;;;23.38;14.43;;;;;;;4.97;76.18;100100.73;1733138;83;21046;-75
2023/10/19 05:40:31;;;;;;;30.23;15.83;;;;;;;5.02;75.93;100099.71;1733143;82;21067;-75
2023/10/19 05:43:01;;;;;;;32.85;16.82;;;;;;;5.07;75.72;100098.19;1733200;82;21055;-74
2023/10/19 05:45:30;;;;;;;30.30;15.25;;;;;;;5.13;75.59;100099.37;1733134;81;21062;-76
2023/10/19 05:48:00;;;;;;;27.30;14.28;;;;;;;5.20;75.43;100099.54;1733255;81;21525;-75
2023/10/19 05:50:29;;;;;;;26.30;14.95;;;;;;;5.25;75.22;100099.91;1733166;83;21501;-74
2023/10/19 05:52:57;;;;;;;32.73;15.60;;;;;;;5.33;75.04;100102.61;1733314;81;21003;-75
2023/10/19 05:55:26;;;;;;;30.08;14.23;;;;;;;5.38;74.82;100107.02;1733208;83;21102;-76
2023/10/19 05:57:55;;;;;;;27.00;14.20;;;;;;;5.46;74.71;100114.31;1733326;83;21090;-75
2023/10/19 06:00:30;;;;;;;27.73;15.03;;;;;;;5.52;74.37;100112.27;1733138;81;21031;-75
2023/10/19 06:02:55;;;;;;;24.27;14.40;;;;;;;5.54;74.30;100115.16;1732795;82;21047;-76
2023/10/19 06:05:26;;;;;;;25.90;14.93;;;;;;;5.63;74.26;100110.55;1733282;82;21058;-76
2023/10/19 06:07:55;;;;;;;27.27;15.30;;;;;;;5.71;74.12;100109.17;1733117;81;21067;-74
2023/10/19 06:10:27;;;;;;;27.10;15.15;;;;;;;5.80;73.96;100117.64;1733154;83;21535;-76
2023/10/19 06:12:57;;;;;;;29.05;14.98;;;;;;;5.86;73.69;100118.34;1733177;81;21058;-78
2023/10/19 06:15:31;;;;;;;30.60;14.78;;;;;;;5.92;73.36;100119.03;1733076;83;21062;-74
2023/10/19 06:17:58;;;;;;;28.35;14.00;;;;;;;5.97;73.02;100119.36;1733182;83;21105;-75
2023/10/19 06:20:27;;;;;;;26.97;14.18;;;;;;;6.04;72.85;100120.86;1733214;81;21491;-75
2023/10/19 06:23:03;;;;;;;26.00;13.32;;;;;;;6.12;72.73;100117.27;1733123;83;21106;-73
2023/10/19 06:25:28;;;;;;;24.98;14.70;;;;;;;6.18;72.54;100122.00;1732765;82;21118;-75
2023/10/19 06:27:57;;;;;;;26.37;14.20;;;;;;;6.23;72.38;100115.52;1733184;83;21071;-74
2023/10/19 06:30:27;;;;;;;32.00;15.05;;;;;;;6.29;72.21;100118.37;1733180;82;21030;-75
2023/10/19 06:33:03;;;;;;;26.65;15.25;;;;;;;6.35;72.08;100118.18;1733397;83;21019;-74
2023/10/19 06:35:33;;;;;;;23.27;13.53;;;;;;;6.39;71.91;100112.72;1733543;82;21058;-75
2023/10/19 06:38:03;;;;;;;22.90;13.90;;;;;;;6.43;71.71;100109.98;1733573;83;21023;-73
2023/10/19 06:40:36;;;;;;;28.92;13.65;;;;;;;6.47;71.53;100105.02;1733239;83;21025;-77
2023/10/19 06:43:05;;;;;;;36.77;21.48;;;;;;;6.51;71.34;100103.67;1733347;83;21446;-74
2023/10/19 06:45:34;;;;;;;29.82;13.90;;;;;;;6.56;71.22;100108.91;1733148;83;21062;-74
2023/10/19 06:48:03;;;;;;;25.37;14.00;;;;;;;6.61;71.10;100103.78;1733190;81;21051;-77
2023/10/19 06:50:35;;;;;;;27.77;14.40;;;;;;;6.70;71.00;100103.73;1733325;81;21003;-74
2023/10/19 06:53:05;;;;;;;27.80;14.65;;;;;;;6.76;70.72;100101.64;1733116;83;21473;-74
2023/10/19 06:55:34;;;;;;;28.45;14.83;;;;;;;6.83;70.57;100097.17;1733145;83;21458;-76
2023/10/19 06:58:04;;;;;;;26.25;14.18;;;;;;;6.90;70.35;100101.71;1733289;83;21162;-76
2023/10/19 07:00:33;;;;;;;29.20;14.13;;;;;;;6.98;70.13;100098.08;1733119;83;21023;-77
2023/10/19 07:03:03;;;;;;;26.80;14.10;;;;;;;7.05;69.79;100098.20;1689738;83;21035;-76
2023/10/19 07:05:32;;;;;;;28.27;15.20;;;;;;;7.11;69.53;100103.76;1733128;83;21054;-77
2023/10/19 07:08:02;;;;;;;27.90;14.20;;;;;;;7.21;69.20;100099.45;1733422;83;21003;-75
2023/10/19 07:10:32;;;;;;;29.80;14.73;;;;;;;7.27;68.94;100096.84;1733354;83;21034;-75
2023/10/19 07:13:01;;;;;;;26.77;13.18;;;;;;;7.33;68.72;100092.53;1733078;82;21058;-77
2023/10/19 07:15:31;;;;;;;23.55;13.15;;;;;;;7.43;68.46;100097.72;1733135;83;21019;-73
2023/10/19 07:17:59;;;;;;;30.10;15.10;;;;;;;7.49;68.16;100094.26;1733116;83;21050;-73
2023/10/19 07:20:38;;;;;;;26.60;14.30;;;;;;;7.58;67.95;100090.41;1733110;83;20991;-75
2023/10/19 07:23:10;;;;;;;25.75;14.50;;;;;;;7.67;67.47;100085.20;1733088;81;21050;-77
2023/10/19 07:25:43;;;;;;;27.87;15.10;;;;;;;7.78;67.11;100091.56;1733064;81;21066;-74
2023/10/19 07:28:12;;;;;;;28.67;13.43;;;;;;;7.92;66.79;100086.66;1733069;81;21019;-73
2023/10/19 07:30:42;;;;;;;29.48;14.10;;;;;;;8.05;66.33;100089.24;1733164;83;21074;-73
2023/10/19 07:33:17;;;;;;;26.10;15.70;;;;;;;8.17;65.77;100091.30;1733063;82;21047;-74
2023/10/19 07:35:43;;;;;;;23.80;14.68;;;;;;;8.30;65.39;100088.41;1732879;82;21529;-73
2023/10/19 07:38:13;;;;;;;22.95;13.20;;;;;;;8.44;65.06;100080.23;1732984;83;20980;-74
2023/10/19 07:40:43;;;;;;;26.90;11.83;;;;;;;8.64;63.86;100076.39;1733095;82;21050;-73
2023/10/19 07:43:12;;;;;;;20.50;10.93;;;;;;;8.89;63.94;100079.08;1713036;83;21031;-73
2023/10/19 07:45:42;;;;;;;20.72;11.28;;;;;;;9.25;63.58;100079.55;1733025;83;21266;-74
2023/10/19 07:48:11;;;;;;;20.32;11.15;;;;;;;9.67;63.11;100073.14;1733235;83;21007;-74
2023/10/19 07:50:40;;;;;;;22.50;11.05;;;;;;;10.11;61.80;100067.85;1733019;81;20980;-75
2023/10/19 07:53:09;;;;;;;20.82;10.72;;;;;;;10.49;60.89;100061.44;1733086;83;21482;-76
2023/10/19 07:55:39;;;;;;;21.85;10.60;;;;;;;10.89;59.77;100063.76;1746898;81;21060;-75
2023/10/19 07:58:08;;;;;;;15.18;9.55;;;;;;;11.32;58.53;100055.18;1762935;81;21056;-76
2023/10/19 08:00:36;;;;;;;16.62;9.85;;;;;;;11.69;55.76;100062.75;1746926;81;21018;-72
2023/10/19 08:03:06;;;;;;;21.77;10.50;;;;;;;11.97;55.41;100061.70;1745271;81;21444;-78
2023/10/19 08:05:39;;;;;;;14.93;9.75;;;;;;;12.20;54.54;100057.93;1712003;83;21543;-78
2023/10/19 08:08:17;;;;;;;16.82;10.10;;;;;;;12.31;54.14;100059.16;1778176;80;21071;-78
2023/10/19 08:10:47;;;;;;;17.80;10.38;;;;;;;12.40;53.53;100048.80;1713389;84;21064;-77
2023/10/19 08:13:16;;;;;;;14.85;9.53;;;;;;;12.36;52.62;100058.84;1778638;80;21056;-80
2023/10/19 08:15:44;;;;;;;15.40;9.58;;;;;;;12.24;52.40;100053.69;1778195;81;21114;-77
2023/10/19 08:18:14;;;;;;;13.83;9.50;;;;;;;12.11;52.80;100052.89;1778336;81;21459;-77
2023/10/19 08:20:45;;;;;;;13.62;8.50;;;;;;;12.03;53.21;100057.56;1712107;84;21096;-78
2023/10/19 08:23:16;;;;;;;15.08;9.23;;;;;;;12.03;53.12;100058.09;1778335;81;21071;-79
2023/10/19 08:25:45;;;;;;;17.55;9.38;;;;;;;12.02;53.00;100049.54;1778192;81;21083;-78
2023/10/19 08:28:15;;;;;;;16.48;8.58;;;;;;;12.02;53.00;100055.03;1776185;81;21079;-75
2023/10/19 08:30:56;;;;;;;15.78;8.50;;;;;;;12.04;52.92;100055.13;1754998;80;21567;-78
2023/10/19 08:33:15;;;;;;;14.87;8.45;;;;;;;12.02;52.37;100051.76;1750552;80;21026;-78
2023/10/19 08:35:44;;;;;;;15.60;8.35;;;;;;;11.90;52.33;100045.24;1751739;82;21061;-77
2023/10/19 08:38:13;;;;;;;16.62;10.25;;;;;;;11.83;52.56;100050.44;1751800;82;21053;-77
2023/10/19 08:40:42;;;;;;;15.48;9.35;;;;;;;11.77;52.64;100041.66;1751619;80;21073;-78
2023/10/19 08:43:13;;;;;;;17.37;9.53;;;;;;;11.72;52.51;100051.91;1751779;82;21069;-75
2023/10/19 08:45:41;;;;;;;15.83;9.33;;;;;;;11.62;52.53;100046.82;1751752;82;21121;-77
2023/10/19 08:48:11;;;;;;;13.38;8.85;;;;;;;11.53;52.65;100051.38;1751703;81;21207;-77
2023/10/19 08:50:40;;;;;;;16.48;8.58;;;;;;;11.42;52.89;100050.95;1751849;81;21446;-78
2023/10/19 08:53:09;;;;;;;16.30;8.60;;;;;;;11.40;53.25;100050.32;1751585;80;21578;-77
2023/10/19 08:55:38;;;;;;;13.95;8.60;;;;;;;11.41;53.17;100049.80;1751683;81;21525;-77
2023/10/19 08:58:09;;;;;;;16.52;9.03;;;;;;;11.47;53.52;100053.59;1750631;80;21021;-80
2023/10/19 09:00:50;;;;;;;16.95;8.93;;;;;;;11.49;53.05;100056.44;1751695;81;21461;-77
2023/10/19 09:03:19;;;;;;;17.60;9.23;;;;;;;11.49;52.78;100051.48;1757552;80;20999;-77
2023/10/19 09:05:49;;;;;;;15.05;9.13;;;;;;;11.45;52.63;100051.06;1772647;81;21036;-79
2023/10/19 09:08:20;;;;;;;13.43;8.93;;;;;;;11.44;52.69;100057.59;1772698;81;21106;-78
2023/10/19 09:10:51;;;;;;;15.38;9.35;;;;;;;11.43;52.27;100053.17;1706778;84;21036;-77
2023/10/19 09:13:22;;;;;;;15.05;8.33;;;;;;;11.39;51.86;100051.38;1772921;81;21411;-79
2023/10/19 09:15:55;;;;;;;12.33;8.80;;;;;;;11.35;52.38;100039.67;1706439;84;21067;-78
2023/10/19 09:18:28;;;;;;;13.38;8.05;;;;;;;11.37;52.33;100039.77;1772770;81;21055;-78
2023/10/19 09:21:21;;;;;;;13.40;8.18;;;;;;;11.36;52.10;100038.09;1706621;84;21024;-76
2023/10/19 09:23:44;;;;;;;13.22;8.78;;;;;;;11.35;51.94;100037.77;1772017;81;21028;-77
2023/10/19 09:26:13;;;;;;;15.18;9.20;;;;;;;11.35;52.22;100036.92;1686583;84;21557;-77
2023/10/19 09:28:41;;;;;;;12.45;7.83;;;;;;;11.37;51.80;100032.91;1772507;81;21091;-78
2023/10/19 09:31:11;;;;;;;14.33;8.70;;;;;;;11.33;51.50;100030.81;1706652;84;21072;-77
2023/10/19 09:33:41;;;;;;;14.58;7.90;;;;;;;11.30;51.60;100033.97;1772797;81;21000;-78
2023/10/19 09:36:14;;;;;;;10.30;6.85;;;;;;;11.29;51.51;100035.88;1706533;84;21055;-78
2023/10/19 09:38:51;;;;;;;17.85;14.38;;;;;;;11.28;51.61;100030.60;1772914;81;21059;-79
2023/10/19 09:41:21;;;;;;;15.15;8.48;;;;;;;11.27;51.38;100028.39;1772850;81;21095;-77
2023/10/19 09:43:50;;;;;;;11.83;7.62;;;;;;;11.27;51.80;100018.78;1772628;81;21040;-77
2023/10/19 09:46:31;;;;;;;11.20;6.78;;;;;;;11.32;51.81;100020.89;1772634;81;21075;-77
2023/10/19 09:49:00;;;;;;;14.23;6.83;;;;;;;11.38;51.59;100024.16;1772768;81;21044;-79
2023/10/19 09:51:30;;;;;;;10.53;6.25;;;;;;;11.41;51.29;100027.85;1706493;84;21028;-78
2023/10/19 09:54:09;;;;;;;11.33;6.60;;;;;;;11.43;50.92;100032.59;1772646;81;20988;-76
2023/10/19 09:56:41;;;;;;;12.00;5.92;;;;;;;11.41;50.96;100021.84;1772853;81;21526;-77
2023/10/19 09:59:33;;;;;;;10.65;6.40;;;;;;;11.41;50.47;100019.09;1747979;81;21140;-78
2023/10/19 10:02:12;;;;;;;12.28;7.28;;;;;;;11.39;50.19;100012.13;1743642;81;21073;-79
2023/10/19 10:04:45;;;;;;;12.28;7.22;;;;;;;11.35;50.50;100007.59;1770890;80;21059;-77
2023/10/19 10:07:13;;;;;;;11.57;6.22;;;;;;;11.35;50.74;100006.75;1780881;80;21047;-76
2023/10/19 10:09:46;;;;;;;10.25;6.67;;;;;;;11.35;50.70;100003.48;1713788;84;21492;-76
2023/10/19 10:12:23;;;;;;;14.50;6.47;;;;;;;11.38;50.95;100009.07;1780963;80;21003;-78
2023/10/19 10:15:02;;;;;;;9.08;6.03;;;;;;;11.41;50.59;100007.27;1780926;80;21047;-77
2023/10/19 10:17:35;;;;;;;12.35;5.90;;;;;;;11.46;50.40;100008.85;1780775;80;21024;-78
2023/10/19 10:20:19;;;;;;;12.18;6.60;;;;;;;11.49;50.44;100004.84;1714219;84;21040;-76
2023/10/19 10:23:05;;;;;;;10.70;6.92;;;;;;;11.55;50.38;99994.38;1780819;80;21020;-78
2023/10/19 10:25:33;;;;;;;19.67;7.20;;;;;;;11.60;50.19;99994.05;1694310;84;21175;-78
2023/10/19 10:28:05;;;;;;;13.18;7.47;;;;;;;11.63;50.14;99982.64;1702296;80;21102;-76
2023/10/19 10:30:34;;;;;;;9.53;6.47;;;;;;;11.66;50.07;99986.33;1714081;84;21540;-78
2023/10/19 10:33:05;;;;;;;9.50;6.37;;;;;;;11.69;49.55;99983.16;1780759;80;21085;-79
2023/10/19 10:35:42;;;;;;;8.80;5.70;;;;;;;11.67;48.95;99979.78;1780961;80;21042;-78
2023/10/19 10:38:16;;;;;;;10.98;5.65;;;;;;;11.66;48.84;99979.47;1778848;80;21039;-75
2023/10/19 10:40:47;;;;;;;10.25;5.50;;;;;;;11.66;48.41;99974.52;1780652;80;21086;-78
2023/10/19 10:43:19;;;;;;;9.78;6.03;;;;;;;11.64;48.63;99970.61;1780982;80;21447;-78
2023/10/19 10:45:52;;;;;;;10.13;6.00;;;;;;;11.68;48.73;99962.79;1780778;80;21063;-78
2023/10/19 10:48:26;;;;;;;10.50;6.15;;;;;;;11.69;48.47;99974.92;1780864;80;21082;-76
2023/10/19 10:50:55;;;;;;;8.53;5.47;;;;;;;11.73;48.27;99965.77;1780974;80;21459;-76
2023/10/19 10:53:26;;;;;;;10.45;6.72;;;;;;;11.75;48.07;99965.86;1780818;80;21000;-76
2023/10/19 10:55:55;;;;;;;9.43;5.80;;;;;;;11.74;48.20;99969.66;1780899;80;21071;-77
2023/10/19 10:58:24;;;;;;;10.72;5.87;;;;;;;11.74;48.29;99966.92;1714162;84;21063;-76
2023/10/19 11:00:54;;;;;;;8.35;5.42;;;;;;;11.74;47.62;99953.20;1780840;80;21460;-77
2023/10/19 11:03:25;;;;;;;10.38;5.92;;;;;;;11.69;48.01;99962.58;1773250;80;21044;-76
2023/10/19 11:05:54;;;;;;;9.38;5.62;;;;;;;11.69;47.98;99954.34;1751689;81;21158;-77
2023/10/19 11:08:26;;;;;;;8.30;5.97;;;;;;;11.68;48.25;99948.54;1751724;80;21065;-78
2023/10/19 11:10:55;;;;;;;13.25;6.42;;;;;;;11.72;48.41;99948.45;1751809;82;21017;-79
2023/10/19 11:13:26;;;;;;;9.13;5.78;;;;;;;11.72;48.53;99948.45;1709732;82;21049;-79
2023/10/19 11:15:58;;;;;;;12.55;5.80;;;;;;;11.77;48.74;99945.59;1751654;82;21001;-79
2023/10/19 11:18:45;;;;;;;14.20;6.72;;;;;;;11.80;48.93;99943.81;1751806;82;21041;-78
2023/10/19 11:21:22;;;;;;;9.28;6.45;;;;;;;11.87;48.63;99937.77;1751795;82;21070;-78
2023/10/19 11:23:49;;;;;;;10.65;6.67;;;;;;;11.90;48.78;99938.17;1751760;80;21025;-76
2023/10/19 11:26:22;;;;;;;11.08;6.10;;;;;;;11.92;48.33;99933.84;1751886;82;21144;-78
2023/10/19 11:29:01;;;;;;;10.43;6.72;;;;;;;11.89;48.55;99926.04;1751883;82;21045;-79
2023/10/19 11:31:37;;;;;;;10.20;5.95;;;;;;;11.91;48.74;99934.91;1751550;81;21041;-78
2023/10/19 11:34:00;;;;;;;11.25;5.95;;;;;;;11.92;48.78;99933.31;1751303;80;22029;-79
2023/10/19 11:36:31;;;;;;;9.28;5.60;;;;;;;11.96;48.79;99929.59;1751805;80;21461;-76
2023/10/19 11:38:59;;;;;;;10.10;6.33;;;;;;;11.97;48.55;99921.67;1751789;82;21485;-79
2023/10/19 11:41:30;;;;;;;10.13;6.05;;;;;;;11.96;48.55;99909.84;1751829;82;21014;-78
2023/10/19 11:43:59;;;;;;;10.88;6.45;;;;;;;11.96;49.04;99917.24;1751600;80;21448;-79
2023/10/19 11:46:29;;;;;;;10.00;5.70;;;;;;;11.98;49.19;99915.12;1751749;80;21041;-80
2023/10/19 11:48:58;;;;;;;10.93;5.65;;;;;;;11.99;48.97;99903.08;1751766;81;21053;-78
2023/10/19 11:51:31;;;;;;;12.35;6.10;;;;;;;12.00;48.84;99908.87;1751754;82;21022;-79
2023/10/19 11:54:01;;;;;;;10.38;6.72;;;;;;;11.99;48.89;99896.21;1751712;82;21092;-80
2023/10/19 11:56:33;;;;;;;11.88;6.33;;;;;;;11.99;49.06;99892.09;1751471;82;20993;-79
2023/10/19 11:59:07;;;;;;;9.93;6.17;;;;;;;12.02;49.13;99891.66;1751652;80;21459;-79
2023/10/19 12:01:38;;;;;;;10.05;6.05;;;;;;;12.04;49.25;99886.78;1732652;82;21026;-79
2023/10/19 12:04:07;;;;;;;11.55;6.17;;;;;;;12.05;49.40;99879.70;1768058;80;21114;-70